PWSweather.com
Personal Weather Stations
Station Observations
IRIVIRED2
île Maurice, Petit RaffrayMU

île MauricePetit RaffrayMU

Lat: -20.02533, Lon: 57.61883

Elevation: 183

Station Type: Davis Vantage Pro2 plus

http://www.meteomauritius.altervista.org

High Low Average
Temperature 78.6°F25.9°F 70.9°F21.6°F 73.6°F23.1°F
Dew Point 71.2°F21.8°F 65.2°F18.4°F 68.2°F20.1°F
Winds 13.8 mph NE22.2 mph NE Calm Calm 5.0 mph 8.0 mph
Wind Gusts 20.7 mph33.3 mph -- 8.7 mph14.0 mph
Humidity 92% 70% 83%
Pressure 30.13 in1020.30 in 30.01 in1016.30 in -
Precipitation 0.17 in4.30 in - -
Hour Temp Dew Point Humidity Winds Wind Gusts Pressure Precip Precip Rate Daily Precip Total
12:00 AM 73.4°F23.0°C 67.2°F19.6°C 81% 5.8 mph E9.3 kmh E 8.1 mph13.0 kmh 30.13 in1020.3 mb - 0.00 in0.0 mm 0.00 in0.0 mm
12:10 AM 73.6°F23.1°C 67.4°F19.7°C 81% 3.5 mph ENE5.6 kmh ENE 4.6 mph7.4 kmh 30.13 in1020.3 mb - 0.00 in0.0 mm 0.00 in0.0 mm
12:20 AM 73.9°F23.3°C 67.7°F19.8°C 81% 4.6 mph NE7.4 kmh NE 8.1 mph13.0 kmh 30.13 in1020.3 mb - 0.00 in0.0 mm 0.00 in0.0 mm
12:30 AM 73.9°F23.3°C 67.3°F19.6°C 80% 5.8 mph E9.3 kmh E 10.4 mph16.7 kmh 30.13 in1020.3 mb - 0.00 in0.0 mm 0.00 in0.0 mm
12:40 AM 73.9°F23.3°C 67.0°F19.4°C 79% 5.8 mph ENE9.3 kmh ENE 10.4 mph16.7 kmh 30.12 in1020.0 mb - 0.00 in0.0 mm 0.00 in0.0 mm
12:50 AM 73.8°F23.2°C 66.9°F19.4°C 79% 3.5 mph ENE5.6 kmh ENE 8.1 mph13.0 kmh 30.12 in1020.0 mb - 0.00 in0.0 mm 0.00 in0.0 mm
01:00 AM 73.7°F23.2°C 66.4°F19.1°C 78% 4.6 mph ENE7.4 kmh ENE 4.6 mph7.4 kmh 30.12 in1020.0 mb - 0.00 in0.0 mm 0.00 in0.0 mm
01:10 AM 73.7°F23.2°C 66.8°F19.3°C 79% 5.8 mph ENE9.3 kmh ENE 6.9 mph11.1 kmh 30.12 in1020.0 mb - 0.00 in0.0 mm 0.00 in0.0 mm
01:20 AM 73.6°F23.1°C 66.3°F19.1°C 78% 4.6 mph ENE7.4 kmh ENE 8.1 mph13.0 kmh 30.12 in1020.0 mb - 0.00 in0.0 mm 0.00 in0.0 mm
01:30 AM 73.6°F23.1°C 66.3°F19.1°C 78% 6.9 mph ENE11.1 kmh ENE 10.4 mph16.7 kmh 30.12 in1020.0 mb - 0.00 in0.0 mm 0.00 in0.0 mm
01:40 AM 73.5°F23.1°C 66.6°F19.2°C 79% 3.5 mph E5.6 kmh E 6.9 mph11.1 kmh 30.12 in1020.0 mb - 0.00 in0.0 mm 0.00 in0.0 mm
01:50 AM 73.2°F22.9°C 65.9°F18.8°C 78% 5.8 mph E9.3 kmh E 10.4 mph16.7 kmh 30.11 in1019.6 mb - 0.00 in0.0 mm 0.00 in0.0 mm
02:00 AM 73.2°F22.9°C 66.3°F19.1°C 79% 4.6 mph E7.4 kmh E 6.9 mph11.1 kmh 30.11 in1019.6 mb - 0.00 in0.0 mm 0.00 in0.0 mm
02:10 AM 73.1°F22.8°C 66.2°F19.0°C 79% 5.8 mph E9.3 kmh E 10.4 mph16.7 kmh 30.11 in1019.6 mb - 0.00 in0.0 mm 0.00 in0.0 mm
02:20 AM 73.0°F22.8°C 66.5°F19.2°C 80% 4.6 mph E7.4 kmh E 6.9 mph11.1 kmh 30.11 in1019.6 mb - 0.00 in0.0 mm 0.00 in0.0 mm
02:30 AM 73.2°F22.9°C 66.7°F19.3°C 80% 5.8 mph E9.3 kmh E 6.9 mph11.1 kmh 30.11 in1019.6 mb - 0.00 in0.0 mm 0.00 in0.0 mm
02:40 AM 73.2°F22.9°C 66.3°F19.1°C 79% 4.6 mph ENE7.4 kmh ENE 8.1 mph13.0 kmh 30.11 in1019.6 mb - 0.00 in0.0 mm 0.00 in0.0 mm
02:50 AM 73.0°F22.8°C 66.1°F18.9°C 79% 5.8 mph E9.3 kmh E 9.2 mph14.8 kmh 30.10 in1019.3 mb - 0.00 in0.0 mm 0.00 in0.0 mm
03:00 AM 73.0°F22.8°C 66.1°F18.9°C 79% 6.9 mph E11.1 kmh E 10.4 mph16.7 kmh 30.10 in1019.3 mb - 0.00 in0.0 mm 0.00 in0.0 mm
03:10 AM 73.0°F22.8°C 65.8°F18.8°C 78% 6.9 mph E11.1 kmh E 11.5 mph18.5 kmh 30.10 in1019.3 mb - 0.00 in0.0 mm 0.00 in0.0 mm
03:20 AM 73.0°F22.8°C 65.7°F18.7°C 78% 4.6 mph E7.4 kmh E 8.1 mph13.0 kmh 30.10 in1019.3 mb - 0.00 in0.0 mm 0.00 in0.0 mm
03:30 AM 72.7°F22.6°C 65.5°F18.6°C 78% 3.5 mph E5.6 kmh E 6.9 mph11.1 kmh 30.10 in1019.3 mb - 0.00 in0.0 mm 0.00 in0.0 mm
03:40 AM 72.5°F22.5°C 65.2°F18.4°C 78% 5.8 mph E9.3 kmh E 6.9 mph11.1 kmh 30.09 in1019.0 mb - 0.00 in0.0 mm 0.00 in0.0 mm
03:50 AM 72.5°F22.5°C 65.2°F18.4°C 78% 4.6 mph E7.4 kmh E 9.2 mph14.8 kmh 30.09 in1019.0 mb - 0.00 in0.0 mm 0.00 in0.0 mm
04:00 AM 72.6°F22.6°C 65.7°F18.7°C 79% 2.3 mph E3.7 kmh E 3.5 mph5.6 kmh 30.09 in1019.0 mb - 0.00 in0.0 mm 0.00 in0.0 mm
04:10 AM 72.6°F22.6°C 65.7°F18.7°C 79% 2.3 mph E3.7 kmh E 4.6 mph7.4 kmh 30.09 in1019.0 mb - 0.00 in0.0 mm 0.00 in0.0 mm
04:20 AM 72.5°F22.5°C 66.0°F18.9°C 80% 2.3 mph E3.7 kmh E 4.6 mph7.4 kmh 30.09 in1019.0 mb - 0.00 in0.0 mm 0.00 in0.0 mm
04:30 AM 72.4°F22.4°C 66.2°F19.0°C 81% 2.3 mph E3.7 kmh E 2.3 mph3.7 kmh 30.09 in1019.0 mb - 0.00 in0.0 mm 0.00 in0.0 mm
04:40 AM 72.3°F22.4°C 66.5°F19.2°C 82% 2.3 mph ESE3.7 kmh ESE 4.6 mph7.4 kmh 30.09 in1019.0 mb - 0.00 in0.0 mm 0.00 in0.0 mm
04:50 AM 72.3°F22.4°C 66.5°F19.2°C 82% 3.5 mph ESE5.6 kmh ESE 3.5 mph5.6 kmh 30.08 in1018.6 mb - 0.00 in0.0 mm 0.00 in0.0 mm
05:00 AM 72.3°F22.4°C 66.8°F19.3°C 83% 3.5 mph ESE5.6 kmh ESE 6.9 mph11.1 kmh 30.08 in1018.6 mb - 0.00 in0.0 mm 0.00 in0.0 mm
05:10 AM 72.4°F22.4°C 67.3°F19.6°C 84% 4.6 mph E7.4 kmh E 4.6 mph7.4 kmh 30.08 in1018.6 mb - 0.00 in0.0 mm 0.00 in0.0 mm
05:20 AM 72.4°F22.4°C 67.3°F19.6°C 84% 3.5 mph E5.6 kmh E 5.8 mph9.3 kmh 30.08 in1018.6 mb - 0.00 in0.0 mm 0.00 in0.0 mm
05:30 AM 72.3°F22.4°C 67.2°F19.6°C 84% 2.3 mph ESE3.7 kmh ESE 4.6 mph7.4 kmh 30.09 in1019.0 mb - 0.00 in0.0 mm 0.00 in0.0 mm
05:40 AM 72.0°F22.2°C 67.2°F19.6°C 85% 2.3 mph SSE3.7 kmh SSE 4.6 mph7.4 kmh 30.09 in1019.0 mb - 0.00 in0.0 mm 0.00 in0.0 mm
05:50 AM 71.6°F22.0°C 67.2°F19.6°C 86% Calm Calm -- 30.09 in1019.0 mb - 0.00 in0.0 mm 0.00 in0.0 mm
06:00 AM 71.1°F21.7°C 66.7°F19.3°C 86% 2.3 mph SE3.7 kmh SE 4.6 mph7.4 kmh 30.09 in1019.0 mb - 0.00 in0.0 mm 0.00 in0.0 mm
06:10 AM 70.9°F21.6°C 66.8°F19.3°C 87% 1.2 mph SE1.9 kmh SE 3.5 mph5.6 kmh 30.09 in1019.0 mb - 0.00 in0.0 mm 0.00 in0.0 mm
06:20 AM 71.1°F21.7°C 67.7°F19.8°C 89% 5.8 mph ESE9.3 kmh ESE 10.4 mph16.7 kmh 30.10 in1019.3 mb - 0.00 in0.0 mm 0.00 in0.0 mm
06:30 AM 71.7°F22.1°C 68.7°F20.4°C 90% 5.8 mph E9.3 kmh E 9.2 mph14.8 kmh 30.10 in1019.3 mb - 0.00 in0.0 mm 0.00 in0.0 mm
06:40 AM 71.7°F22.1°C 68.3°F20.2°C 89% 3.5 mph E5.6 kmh E 6.9 mph11.1 kmh 30.10 in1019.3 mb - 0.00 in0.0 mm 0.00 in0.0 mm
06:50 AM 71.9°F22.2°C 68.8°F20.4°C 90% 6.9 mph E11.1 kmh E 11.5 mph18.5 kmh 30.10 in1019.3 mb - 0.00 in0.0 mm 0.00 in0.0 mm
07:00 AM 72.1°F22.3°C 69.0°F20.6°C 90% 5.8 mph ENE9.3 kmh ENE 10.4 mph16.7 kmh 30.10 in1019.3 mb - 0.00 in0.0 mm 0.00 in0.0 mm
07:10 AM 72.1°F22.3°C 68.7°F20.4°C 89% 4.6 mph E7.4 kmh E 8.1 mph13.0 kmh 30.10 in1019.3 mb - 0.00 in0.0 mm 0.00 in0.0 mm
07:20 AM 72.2°F22.3°C 68.8°F20.4°C 89% 4.6 mph E7.4 kmh E 10.4 mph16.7 kmh 30.11 in1019.6 mb - 0.00 in0.0 mm 0.00 in0.0 mm
07:30 AM 72.9°F22.7°C 69.5°F20.8°C 89% 4.6 mph ENE7.4 kmh ENE 11.5 mph18.5 kmh 30.11 in1019.6 mb - 0.00 in0.0 mm 0.00 in0.0 mm
07:40 AM 73.5°F23.1°C 69.8°F21.0°C 88% 8.1 mph NE13.0 kmh NE 16.1 mph25.9 kmh 30.11 in1019.6 mb - 0.00 in0.0 mm 0.00 in0.0 mm
07:50 AM 73.9°F23.3°C 69.8°F21.0°C 87% 8.1 mph ENE13.0 kmh ENE 16.1 mph25.9 kmh 30.11 in1019.6 mb - 0.00 in0.0 mm 0.00 in0.0 mm
08:00 AM 73.9°F23.3°C 69.4°F20.8°C 86% 11.5 mph NE18.5 kmh NE 15.0 mph24.1 kmh 30.11 in1019.6 mb - 0.00 in0.0 mm 0.00 in0.0 mm
08:10 AM 74.3°F23.5°C 69.1°F20.6°C 84% 9.2 mph NE14.8 kmh NE 13.8 mph22.2 kmh 30.11 in1019.6 mb - 0.00 in0.0 mm 0.00 in0.0 mm
08:20 AM 74.9°F23.8°C 69.4°F20.8°C 83% 4.6 mph NE7.4 kmh NE 10.4 mph16.7 kmh 30.12 in1020.0 mb - 0.00 in0.0 mm 0.00 in0.0 mm
08:30 AM 75.7°F24.3°C 69.5°F20.8°C 81% 6.9 mph NE11.1 kmh NE 10.4 mph16.7 kmh 30.12 in1020.0 mb - 0.00 in0.0 mm 0.00 in0.0 mm
08:40 AM 75.1°F23.9°C 69.2°F20.7°C 82% 6.9 mph ENE11.1 kmh ENE 10.4 mph16.7 kmh 30.12 in1020.0 mb - 0.00 in0.0 mm 0.00 in0.0 mm
08:50 AM 74.8°F23.8°C 68.9°F20.5°C 82% 3.5 mph ENE5.6 kmh ENE 8.1 mph13.0 kmh 30.12 in1020.0 mb - 0.00 in0.0 mm 0.00 in0.0 mm
09:00 AM 75.0°F23.9°C 69.1°F20.6°C 82% 5.8 mph ENE9.3 kmh ENE 9.2 mph14.8 kmh 30.13 in1020.3 mb - 0.00 in0.0 mm 0.00 in0.0 mm
09:10 AM 75.7°F24.3°C 69.5°F20.8°C 81% 4.6 mph ENE7.4 kmh ENE 9.2 mph14.8 kmh 30.13 in1020.3 mb - 0.00 in0.0 mm 0.00 in0.0 mm
09:20 AM 76.0°F24.4°C 69.0°F20.6°C 79% 4.6 mph ENE7.4 kmh ENE 8.1 mph13.0 kmh 30.13 in1020.3 mb - 0.00 in0.0 mm 0.00 in0.0 mm
09:30 AM 76.3°F24.6°C 68.9°F20.5°C 78% 6.9 mph ENE11.1 kmh ENE 11.5 mph18.5 kmh 30.13 in1020.3 mb - 0.00 in0.0 mm 0.00 in0.0 mm
09:40 AM 75.6°F24.2°C 69.3°F20.7°C 81% 8.1 mph ENE13.0 kmh ENE 13.8 mph22.2 kmh 30.13 in1020.3 mb - 0.00 in0.0 mm 0.00 in0.0 mm
09:50 AM 75.5°F24.2°C 69.6°F20.9°C 82% 6.9 mph NE11.1 kmh NE 16.1 mph25.9 kmh 30.13 in1020.3 mb - 0.00 in0.0 mm 0.00 in0.0 mm
10:00 AM 75.8°F24.3°C 69.6°F20.9°C 81% 6.9 mph ENE11.1 kmh ENE 9.2 mph14.8 kmh 30.13 in1020.3 mb - 0.00 in0.0 mm 0.00 in0.0 mm
10:10 AM 77.3°F25.2°C 69.9°F21.1°C 78% 6.9 mph NE11.1 kmh NE 11.5 mph18.5 kmh 30.12 in1020.0 mb - 0.00 in0.0 mm 0.00 in0.0 mm
10:20 AM 77.5°F25.3°C 68.9°F20.5°C 75% 9.2 mph E14.8 kmh E 12.7 mph20.4 kmh 30.12 in1020.0 mb - 0.00 in0.0 mm 0.00 in0.0 mm
10:30 AM 77.4°F25.2°C 68.5°F20.3°C 74% 8.1 mph ENE13.0 kmh ENE 12.7 mph20.4 kmh 30.12 in1020.0 mb - 0.00 in0.0 mm 0.00 in0.0 mm
10:40 AM 77.5°F25.3°C 67.8°F19.9°C 72% 9.2 mph E14.8 kmh E 17.3 mph27.8 kmh 30.11 in1019.6 mb - 0.00 in0.0 mm 0.00 in0.0 mm
10:50 AM 77.9°F25.5°C 68.9°F20.5°C 74% 6.9 mph ENE11.1 kmh ENE 10.4 mph16.7 kmh 30.11 in1019.6 mb - 0.00 in0.0 mm 0.00 in0.0 mm
11:00 AM 78.5°F25.8°C 68.8°F20.4°C 72% 4.6 mph ENE7.4 kmh ENE 8.1 mph13.0 kmh 30.11 in1019.6 mb - 0.00 in0.0 mm 0.00 in0.0 mm
11:10 AM 78.2°F25.7°C 68.4°F20.2°C 72% 5.8 mph ENE9.3 kmh ENE 10.4 mph16.7 kmh 30.10 in1019.3 mb - 0.00 in0.0 mm 0.00 in0.0 mm
11:20 AM 78.2°F25.7°C 68.4°F20.2°C 72% 4.6 mph E7.4 kmh E 10.4 mph16.7 kmh 30.09 in1019.0 mb - 0.00 in0.0 mm 0.00 in0.0 mm
11:30 AM 78.0°F25.6°C 68.2°F20.1°C 72% 9.2 mph ENE14.8 kmh ENE 12.7 mph20.4 kmh 30.09 in1019.0 mb - 0.00 in0.0 mm 0.00 in0.0 mm
11:40 AM 78.6°F25.9°C 68.0°F20.0°C 70% 6.9 mph ENE11.1 kmh ENE 13.8 mph22.2 kmh 30.09 in1019.0 mb - 0.00 in0.0 mm 0.00 in0.0 mm
11:50 AM 77.5°F25.3°C 69.0°F20.6°C 75% 9.2 mph E14.8 kmh E 19.6 mph31.5 kmh 30.09 in1019.0 mb - 0.00 in0.0 mm 0.00 in0.0 mm
12:00 PM 75.7°F24.3°C 68.4°F20.2°C 78% 13.8 mph NE22.2 kmh NE 20.7 mph33.3 kmh 30.09 in1019.0 mb - 0.00 in0.0 mm 0.00 in0.0 mm
12:10 PM 72.5°F22.5°C 67.7°F19.8°C 85% 9.2 mph ENE14.8 kmh ENE 16.1 mph25.9 kmh 30.09 in1019.0 mb - 0.00 in0.0 mm 0.00 in0.0 mm
12:20 PM 71.7°F22.1°C 68.0°F20.0°C 88% 2.3 mph NE3.7 kmh NE 6.9 mph11.1 kmh 30.08 in1018.6 mb - 0.01 in0.3 mm 0.01 in0.3 mm
12:30 PM 72.1°F22.3°C 68.3°F20.2°C 88% 2.3 mph E3.7 kmh E 4.6 mph7.4 kmh 30.08 in1018.6 mb - 0.00 in0.0 mm 0.01 in0.3 mm
12:40 PM 72.9°F22.7°C 68.8°F20.4°C 87% 4.6 mph NE7.4 kmh NE 9.2 mph14.8 kmh 30.07 in1018.3 mb - 0.01 in0.3 mm 0.02 in0.5 mm
12:50 PM 72.6°F22.6°C 69.2°F20.7°C 89% 1.2 mph N1.9 kmh N 5.8 mph9.3 kmh 30.07 in1018.3 mb - 0.02 in0.5 mm 0.03 in0.8 mm
01:00 PM 73.2°F22.9°C 70.1°F21.2°C 90% Calm Calm -- 30.06 in1017.9 mb - 0.00 in0.0 mm 0.03 in0.8 mm
01:10 PM 74.2°F23.4°C 71.1°F21.7°C 90% Calm Calm -- 30.05 in1017.6 mb - 0.00 in0.0 mm 0.03 in0.8 mm
01:20 PM 75.3°F24.1°C 71.2°F21.8°C 87% 6.9 mph E11.1 kmh E 6.9 mph11.1 kmh 30.05 in1017.6 mb - 0.00 in0.0 mm 0.03 in0.8 mm
01:30 PM 75.2°F24.0°C 69.0°F20.6°C 81% 10.4 mph NE16.7 kmh NE 13.8 mph22.2 kmh 30.04 in1017.3 mb - 0.00 in0.0 mm 0.03 in0.8 mm
01:40 PM 74.7°F23.7°C 69.9°F21.1°C 85% 4.6 mph NE7.4 kmh NE 9.2 mph14.8 kmh 30.04 in1017.3 mb - 0.00 in0.0 mm 0.03 in0.8 mm
01:50 PM 75.5°F24.2°C 70.7°F21.5°C 85% 5.8 mph E9.3 kmh E 11.5 mph18.5 kmh 30.04 in1017.3 mb - 0.00 in0.0 mm 0.03 in0.8 mm
02:00 PM 76.5°F24.7°C 70.9°F21.6°C 83% 3.5 mph ENE5.6 kmh ENE 10.4 mph16.7 kmh 30.03 in1016.9 mb - 0.00 in0.0 mm 0.03 in0.8 mm
02:10 PM 76.6°F24.8°C 68.8°F20.4°C 77% 8.1 mph NE13.0 kmh NE 11.5 mph18.5 kmh 30.03 in1016.9 mb - 0.00 in0.0 mm 0.03 in0.8 mm
02:20 PM 77.3°F25.2°C 69.9°F21.1°C 78% 6.9 mph NE11.1 kmh NE 11.5 mph18.5 kmh 30.03 in1016.9 mb - 0.00 in0.0 mm 0.03 in0.8 mm
02:30 PM 78.0°F25.6°C 69.8°F21.0°C 76% 9.2 mph ENE14.8 kmh ENE 16.1 mph25.9 kmh 30.02 in1016.6 mb - 0.00 in0.0 mm 0.03 in0.8 mm
02:40 PM 78.0°F25.6°C 69.9°F21.1°C 76% 8.1 mph E13.0 kmh E 12.7 mph20.4 kmh 30.02 in1016.6 mb - 0.00 in0.0 mm 0.03 in0.8 mm
02:50 PM 78.2°F25.7°C 70.8°F21.6°C 78% 6.9 mph E11.1 kmh E 13.8 mph22.2 kmh 30.02 in1016.6 mb - 0.00 in0.0 mm 0.03 in0.8 mm
03:00 PM 77.6°F25.3°C 69.8°F21.0°C 77% 8.1 mph E13.0 kmh E 12.7 mph20.4 kmh 30.01 in1016.3 mb - 0.00 in0.0 mm 0.03 in0.8 mm
03:10 PM 76.4°F24.7°C 69.4°F20.8°C 79% 8.1 mph NE13.0 kmh NE 17.3 mph27.8 kmh 30.02 in1016.6 mb - 0.00 in0.0 mm 0.03 in0.8 mm
03:20 PM 74.1°F23.4°C 69.3°F20.7°C 85% 5.8 mph NE9.3 kmh NE 11.5 mph18.5 kmh 30.02 in1016.6 mb - 0.02 in0.5 mm 0.05 in1.3 mm
03:30 PM 73.3°F22.9°C 70.2°F21.2°C 90% 5.8 mph ENE9.3 kmh ENE 10.4 mph16.7 kmh 30.02 in1016.6 mb - 0.02 in0.5 mm 0.06 in1.5 mm
03:40 PM 73.0°F22.8°C 69.8°F21.0°C 90% 8.1 mph NE13.0 kmh NE 9.2 mph14.8 kmh 30.01 in1016.3 mb - 0.02 in0.5 mm 0.07 in1.8 mm
03:50 PM 71.9°F22.2°C 69.1°F20.6°C 91% 4.6 mph NE7.4 kmh NE 6.9 mph11.1 kmh 30.02 in1016.6 mb - 0.00 in0.0 mm 0.07 in1.8 mm
04:00 PM 71.9°F22.2°C 69.2°F20.7°C 91% 5.8 mph NE9.3 kmh NE 8.1 mph13.0 kmh 30.02 in1016.6 mb - 0.00 in0.0 mm 0.07 in1.8 mm
04:10 PM 71.6°F22.0°C 68.5°F20.3°C 90% 5.8 mph NE9.3 kmh NE 10.4 mph16.7 kmh 30.02 in1016.6 mb - 0.01 in0.3 mm 0.08 in2.0 mm
04:20 PM 71.5°F21.9°C 68.8°F20.4°C 91% 1.2 mph NE1.9 kmh NE 3.5 mph5.6 kmh 30.02 in1016.6 mb - 0.06 in1.5 mm 0.13 in3.3 mm
04:30 PM 72.1°F22.3°C 69.7°F20.9°C 92% Calm Calm -- 30.02 in1016.6 mb - 0.00 in0.0 mm 0.13 in3.3 mm
04:40 PM 72.5°F22.5°C 69.7°F20.9°C 91% 1.2 mph E1.9 kmh E 9.2 mph14.8 kmh 30.02 in1016.6 mb - 0.00 in0.0 mm 0.13 in3.3 mm
04:50 PM 72.5°F22.5°C 69.7°F20.9°C 91% 2.3 mph E3.7 kmh E 6.9 mph11.1 kmh 30.02 in1016.6 mb - 0.00 in0.0 mm 0.13 in3.3 mm
05:00 PM 72.8°F22.7°C 69.7°F20.9°C 90% 1.2 mph E1.9 kmh E 6.9 mph11.1 kmh 30.02 in1016.6 mb - 0.00 in0.0 mm 0.13 in3.3 mm
05:10 PM 73.2°F22.9°C 69.4°F20.8°C 88% 9.2 mph E14.8 kmh E 12.7 mph20.4 kmh 30.02 in1016.6 mb - 0.00 in0.0 mm 0.13 in3.3 mm
05:20 PM 73.3°F22.9°C 69.2°F20.7°C 87% 3.5 mph E5.6 kmh E 9.2 mph14.8 kmh 30.02 in1016.6 mb - 0.00 in0.0 mm 0.13 in3.3 mm
05:30 PM 73.1°F22.8°C 69.0°F20.6°C 87% 4.6 mph E7.4 kmh E 8.1 mph13.0 kmh 30.02 in1016.6 mb - 0.00 in0.0 mm 0.13 in3.3 mm
05:40 PM 73.2°F22.9°C 69.1°F20.6°C 87% 5.8 mph E9.3 kmh E 10.4 mph16.7 kmh 30.03 in1016.9 mb - 0.00 in0.0 mm 0.13 in3.3 mm
05:50 PM 73.0°F22.8°C 68.6°F20.3°C 86% 5.8 mph E9.3 kmh E 9.2 mph14.8 kmh 30.03 in1016.9 mb - 0.00 in0.0 mm 0.13 in3.3 mm
06:00 PM 73.1°F22.8°C 68.7°F20.4°C 86% 4.6 mph E7.4 kmh E 10.4 mph16.7 kmh 30.03 in1016.9 mb - 0.00 in0.0 mm 0.13 in3.3 mm
06:10 PM 73.1°F22.8°C 68.7°F20.4°C 86% 4.6 mph ENE7.4 kmh ENE 9.2 mph14.8 kmh 30.03 in1016.9 mb - 0.00 in0.0 mm 0.13 in3.3 mm
06:20 PM 73.1°F22.8°C 68.6°F20.3°C 86% 4.6 mph ENE7.4 kmh ENE 9.2 mph14.8 kmh 30.03 in1016.9 mb - 0.00 in0.0 mm 0.13 in3.3 mm
06:30 PM 73.0°F22.8°C 68.9°F20.5°C 87% 5.8 mph E9.3 kmh E 8.1 mph13.0 kmh 30.03 in1016.9 mb - 0.00 in0.0 mm 0.13 in3.3 mm
06:40 PM 73.1°F22.8°C 68.7°F20.4°C 86% 6.9 mph ENE11.1 kmh ENE 12.7 mph20.4 kmh 30.04 in1017.3 mb - 0.00 in0.0 mm 0.13 in3.3 mm
06:50 PM 73.2°F22.9°C 68.4°F20.2°C 85% 8.1 mph ENE13.0 kmh ENE 11.5 mph18.5 kmh 30.04 in1017.3 mb - 0.00 in0.0 mm 0.13 in3.3 mm
07:00 PM 73.4°F23.0°C 68.2°F20.1°C 84% 6.9 mph ENE11.1 kmh ENE 10.4 mph16.7 kmh 30.04 in1017.3 mb - 0.00 in0.0 mm 0.13 in3.3 mm
07:10 PM 73.1°F22.8°C 68.0°F20.0°C 84% 4.6 mph ENE7.4 kmh ENE 8.1 mph13.0 kmh 30.04 in1017.3 mb - 0.00 in0.0 mm 0.13 in3.3 mm
07:20 PM 73.1°F22.8°C 68.0°F20.0°C 84% 4.6 mph E7.4 kmh E 8.1 mph13.0 kmh 30.05 in1017.6 mb - 0.00 in0.0 mm 0.13 in3.3 mm
07:30 PM 73.0°F22.8°C 67.9°F19.9°C 84% 6.9 mph ENE11.1 kmh ENE 11.5 mph18.5 kmh 30.05 in1017.6 mb - 0.00 in0.0 mm 0.13 in3.3 mm
07:40 PM 73.0°F22.8°C 67.9°F19.9°C 84% 5.8 mph E9.3 kmh E 8.1 mph13.0 kmh 30.05 in1017.6 mb - 0.00 in0.0 mm 0.13 in3.3 mm
07:50 PM 72.9°F22.7°C 67.8°F19.9°C 84% 3.5 mph E5.6 kmh E 5.8 mph9.3 kmh 30.05 in1017.6 mb - 0.00 in0.0 mm 0.13 in3.3 mm
08:00 PM 72.8°F22.7°C 67.7°F19.8°C 84% 3.5 mph ENE5.6 kmh ENE 6.9 mph11.1 kmh 30.06 in1017.9 mb - 0.00 in0.0 mm 0.13 in3.3 mm
08:10 PM 72.7°F22.6°C 68.0°F20.0°C 85% 4.6 mph ENE7.4 kmh ENE 8.1 mph13.0 kmh 30.06 in1017.9 mb - 0.00 in0.0 mm 0.13 in3.3 mm
08:20 PM 72.8°F22.7°C 68.0°F20.0°C 85% 4.6 mph E7.4 kmh E 5.8 mph9.3 kmh 30.06 in1017.9 mb - 0.00 in0.0 mm 0.13 in3.3 mm
08:30 PM 72.6°F22.6°C 67.8°F19.9°C 85% 3.5 mph ENE5.6 kmh ENE 6.9 mph11.1 kmh 30.06 in1017.9 mb - 0.00 in0.0 mm 0.13 in3.3 mm
08:40 PM 72.3°F22.4°C 67.6°F19.8°C 85% 3.5 mph E5.6 kmh E 5.8 mph9.3 kmh 30.07 in1018.3 mb - 0.00 in0.0 mm 0.13 in3.3 mm
08:50 PM 72.2°F22.3°C 67.5°F19.7°C 85% 2.3 mph E3.7 kmh E 8.1 mph13.0 kmh 30.07 in1018.3 mb - 0.00 in0.0 mm 0.13 in3.3 mm
09:00 PM 72.1°F22.3°C 67.3°F19.6°C 85% 2.3 mph ENE3.7 kmh ENE 5.8 mph9.3 kmh 30.07 in1018.3 mb - 0.00 in0.0 mm 0.13 in3.3 mm
09:10 PM 72.2°F22.3°C 67.4°F19.7°C 85% 4.6 mph ENE7.4 kmh ENE 10.4 mph16.7 kmh 30.07 in1018.3 mb - 0.00 in0.0 mm 0.13 in3.3 mm
09:20 PM 72.4°F22.4°C 67.6°F19.8°C 85% 2.3 mph E3.7 kmh E 4.6 mph7.4 kmh 30.07 in1018.3 mb - 0.00 in0.0 mm 0.13 in3.3 mm
09:30 PM 72.4°F22.4°C 68.0°F20.0°C 86% 2.3 mph ENE3.7 kmh ENE 6.9 mph11.1 kmh 30.07 in1018.3 mb - 0.00 in0.0 mm 0.13 in3.3 mm
09:40 PM 72.3°F22.4°C 67.9°F19.9°C 86% 3.5 mph ENE5.6 kmh ENE 5.8 mph9.3 kmh 30.07 in1018.3 mb - 0.00 in0.0 mm 0.13 in3.3 mm
09:50 PM 72.4°F22.4°C 67.6°F19.8°C 85% 2.3 mph ENE3.7 kmh ENE 5.8 mph9.3 kmh 30.07 in1018.3 mb - 0.00 in0.0 mm 0.13 in3.3 mm
10:00 PM 72.4°F22.4°C 67.6°F19.8°C 85% 4.6 mph ENE7.4 kmh ENE 6.9 mph11.1 kmh 30.07 in1018.3 mb - 0.00 in0.0 mm 0.13 in3.3 mm
10:10 PM 72.6°F22.6°C 67.8°F19.9°C 85% 6.9 mph ENE11.1 kmh ENE 9.2 mph14.8 kmh 30.06 in1017.9 mb - 0.00 in0.0 mm 0.13 in3.3 mm
10:20 PM 72.4°F22.4°C 68.0°F20.0°C 86% 2.3 mph E3.7 kmh E 5.8 mph9.3 kmh 30.07 in1018.3 mb - 0.00 in0.0 mm 0.13 in3.3 mm
10:30 PM 72.0°F22.2°C 67.9°F19.9°C 87% 3.5 mph E5.6 kmh E 5.8 mph9.3 kmh 30.06 in1017.9 mb - 0.00 in0.0 mm 0.13 in3.3 mm
10:40 PM 71.8°F22.1°C 67.7°F19.8°C 87% 3.5 mph ENE5.6 kmh ENE 6.9 mph11.1 kmh 30.06 in1017.9 mb - 0.00 in0.0 mm 0.13 in3.3 mm
10:50 PM 71.8°F22.1°C 67.7°F19.8°C 87% 4.6 mph ENE7.4 kmh ENE 6.9 mph11.1 kmh 30.06 in1017.9 mb - 0.00 in0.0 mm 0.13 in3.3 mm
11:00 PM 72.0°F22.2°C 67.9°F19.9°C 87% 3.5 mph ENE5.6 kmh ENE 3.5 mph5.6 kmh 30.06 in1017.9 mb - 0.00 in0.0 mm 0.13 in3.3 mm
11:10 PM 72.1°F22.3°C 68.0°F20.0°C 87% 4.6 mph ENE7.4 kmh ENE 9.2 mph14.8 kmh 30.06 in1017.9 mb - 0.00 in0.0 mm 0.13 in3.3 mm
11:20 PM 71.9°F22.2°C 67.8°F19.9°C 87% 4.6 mph E7.4 kmh E 5.8 mph9.3 kmh 30.06 in1017.9 mb - 0.00 in0.0 mm 0.13 in3.3 mm
11:30 PM 71.5°F21.9°C 67.4°F19.7°C 87% 3.5 mph ENE5.6 kmh ENE 3.5 mph5.6 kmh 30.06 in1017.9 mb - 0.00 in0.0 mm 0.13 in3.3 mm
11:40 PM 71.4°F21.9°C 67.3°F19.6°C 87% 1.2 mph ESE1.9 kmh ESE 2.3 mph3.7 kmh 30.06 in1017.9 mb - 0.00 in0.0 mm 0.13 in3.3 mm
11:50 PM 71.4°F21.9°C 67.7°F19.8°C 88% 2.3 mph E3.7 kmh E 4.6 mph7.4 kmh 30.06 in1017.9 mb - 0.00 in0.0 mm 0.13 in3.3 mm